ETHN

Niederstetten Airport

Niederstetten, Germany
METAR ETHN 211320Z 34001KT 8000 -RA FEW008 OVC060 19/15 Q1013 BLU
Observed Flight Rules
Jul-21 @ 13:20 UTC (23 minutes ago) Marginal Visual Flight Rules
Wind Visibility Clouds Conditions
340° at 1 knots 7,998 meters
  • Few at 800' AGL
  • Overcast at 6,000' AGL
  • Light Rain
Temperatures Readings
Current 19°C / 66°F
Dewpoint 15°C / 59°F
Humidity 78%
Altimeter 29.91" Hg
Pressure 1013 hPa
Elevation 473
METAR ETHN 211320Z 34001KT 8000 -RA FEW008 OVC060 19/15 Q1013 BLU
Observed Flight Rules
Jul-21 @ 13:20 UTC
(23 minutes ago)
MVFR
Wind Visibility
340° at 1 knots 7,998 meters
Clouds
  • Few at 800' AGL
  • Overcast at 6,000' AGL
Conditions
  • Light Rain
Temperature Dewpoint
19°C / 66°F 15°C / 59°F
Humidity Altimeter Pressure
78% 29.91" Hg 1013 hPa